Anamoose, North Dakota
Current Conditions -  °F | °C
As of 4:15 PM on Saturday 20 Dec 2014 (Local Time) from K5H4 Reporting Station
Overcast Overcast  
Wind Chill: -4°   Ceiling: 6000
Heat Index: -1°   Visibility: 10mi
Dew Point: -1°   Wind: 6mph
Humidity: 100%   Direction: 190°S
Pressure: 29.82"   Gusts: NA
Location:  47.88°N, 100.24°W
Report Text: K5H4 202215Z AUTO 19005KT 10SM OVC060 M01/M01 A2982 RMK AO2
Loading
Personal Weather Stations






























Interactive Weather Map New forecast layout! Learn more

10-Day Weather Forecast

Advertisements
Track Severe Weather on mobile